Mustafa Dayi — TCZF2 — position and weather

sailwx.info

Track history (hours):
 
Tides and Currents Weather Stations Pressure Air Temp Water Temp Dewpoint Dewpoint Depression Visibility Wind Speed Wind Dir Waves Ship Positions

Mustafa Dayi

Last reported at 2016-Feb-09 22:33 UTC. Time now 2016-Feb-11 15:09 UTC.
Position N 31°52' E 034°33'.

Length 183 m; draft 9.1 m.

Type: Ship (hazmat cat A). MMSI: 271042433.

Date/timePositionNaut miles runAvg speedWind from/ knotsBaromVisibWave heightAir tempDewpointWater temp
2016-Feb-09 22:33N 31°52' E 034°33'3 0.1
2016-Feb-08 21:20N 31°52' E 034°37'17 1.2
2016-Feb-08 06:33N 32°08' E 034°35'1413.7
2016-Feb-08 05:33N 32°21' E 034°40'1413.7
2016-Feb-08 04:33N 32°35' E 034°44'1413.8
2016-Feb-08 03:33N 32°48' E 034°49'10 1.2
2016-Feb-07 19:14N 32°49' E 035°01'6 8.3
2016-Feb-07 18:33N 32°53' E 034°56'1515.5
2016-Feb-07 17:33N 32°56' E 034°38'  
2016-Feb-03 02:33N 40°26' E 029°00'4 0.9
2016-Feb-02 22:05N 40°25' E 029°05'0 0.0
2016-Feb-02 17:27N 40°25' E 029°05'2 1.7
2016-Feb-02 16:32N 40°26' E 029°03'15 6.8
2016-Feb-02 14:21N 40°39' E 028°56'1215.2
2016-Feb-02 13:33N 40°43' E 029°11'1413.4
2016-Feb-02 12:32N 40°46' E 029°29'9 8.4
2016-Feb-02 11:30N 40°46' E 029°40'3 0.2
2016-Feb-01 18:30N 40°45' E 029°37'1110.9
2016-Feb-01 17:30N 40°44' E 029°23'4 3.9
2016-Feb-01 16:33N 40°43' E 029°18'8 7.6
2016-Feb-01 15:33N 40°44' E 029°08'1515.0
2016-Feb-01 14:33N 40°48' E 028°48'  
Track history (hours):
 
Tides and Currents Weather Stations Pressure Air Temp Water Temp Dewpoint Dewpoint Depression Visibility Wind Speed Wind Dir Waves Ship Positions

Mustafa Dayi

Last reported at 2016-Feb-09 22:33 UTC. Time now 2016-Feb-11 15:09 UTC.
Position N 31°52' E 034°33'.

Length 183 m; draft 9.1 m.

Type: Ship (hazmat cat A). MMSI: 271042433.

Date/timePositionNaut miles runAvg speedWind from/ knotsBaromVisibWave heightAir tempDewpointWater temp
2016-Feb-09 22:33N 31°52' E 034°33'3 0.1
2016-Feb-08 21:20N 31°52' E 034°37'17 1.2
2016-Feb-08 06:33N 32°08' E 034°35'1413.7
2016-Feb-08 05:33N 32°21' E 034°40'1413.7
2016-Feb-08 04:33N 32°35' E 034°44'1413.8
2016-Feb-08 03:33N 32°48' E 034°49'10 1.2
2016-Feb-07 19:14N 32°49' E 035°01'6 8.3
2016-Feb-07 18:33N 32°53' E 034°56'1515.5
2016-Feb-07 17:33N 32°56' E 034°38'  
2016-Feb-03 02:33N 40°26' E 029°00'4 0.9
2016-Feb-02 22:05N 40°25' E 029°05'0 0.0
2016-Feb-02 17:27N 40°25' E 029°05'2 1.7
2016-Feb-02 16:32N 40°26' E 029°03'15 6.8
2016-Feb-02 14:21N 40°39' E 028°56'1215.2
2016-Feb-02 13:33N 40°43' E 029°11'1413.4
2016-Feb-02 12:32N 40°46' E 029°29'9 8.4
2016-Feb-02 11:30N 40°46' E 029°40'3 0.2
2016-Feb-01 18:30N 40°45' E 029°37'1110.9
2016-Feb-01 17:30N 40°44' E 029°23'4 3.9
2016-Feb-01 16:33N 40°43' E 029°18'8 7.6
2016-Feb-01 15:33N 40°44' E 029°08'1515.0
2016-Feb-01 14:33N 40°48' E 028°48'  

Dump ship's entire track history